Time;durP1;ratioP1;P1;durP2;ratioP2;P2;SDS_P1;SDS_P2;PMS_P1;PMS_P2;Temp;Humidity;BMP_temperature;BMP_pressure;BME280_temperature;BME280_humidity;BME280_pressure;Samples;Min_cycle;Max_cycle;Signal;HPM_P1;HPM_P2
2023/04/05 00:00:44;;;;;;;14.52;6.78;;;1.00;99.90;;;;;;5067300;28;20051;-68
2023/04/05 00:03:10;;;;;;;13.43;6.10;;;1.00;99.90;;;;;;5065647;28;20040;-68
2023/04/05 00:05:36;;;;;;;13.90;6.03;;;0.90;99.90;;;;;;5065775;28;20040;-68
2023/04/05 00:08:07;;;;;;;15.32;6.20;;;0.90;99.90;;;;;;5065915;28;20075;-68
2023/04/05 00:10:33;;;;;;;15.95;5.72;;;0.80;99.90;;;;;;5048940;28;20407;-68
2023/04/05 00:12:59;;;;;;;14.90;5.75;;;0.70;99.90;;;;;;5067959;28;20044;-68
2023/04/05 00:15:26;;;;;;;12.68;6.07;;;0.70;99.90;;;;;;5051363;28;20094;-68
2023/04/05 00:17:55;;;;;;;13.73;5.90;;;0.70;99.90;;;;;;5065661;28;20071;-67
2023/04/05 00:20:21;;;;;;;16.38;6.30;;;0.60;99.90;;;;;;5065252;28;20105;-68
2023/04/05 00:22:49;;;;;;;16.20;5.80;;;0.60;99.90;;;;;;5065055;28;20048;-68
2023/04/05 00:25:15;;;;;;;16.25;6.47;;;0.60;99.90;;;;;;5048956;28;20041;-68
2023/04/05 00:27:44;;;;;;;15.07;5.88;;;0.60;99.90;;;;;;5065588;28;20032;-68
2023/04/05 00:30:11;;;;;;;12.82;5.30;;;0.50;99.90;;;;;;5048779;28;20045;-68
2023/04/05 00:32:37;;;;;;;17.10;6.00;;;0.50;99.90;;;;;;5065471;28;20113;-68
2023/04/05 00:35:03;;;;;;;14.10;5.95;;;0.50;99.90;;;;;;5048431;28;20558;-68
2023/04/05 00:37:28;;;;;;;13.88;6.53;;;0.50;99.90;;;;;;5064272;28;20083;-68
2023/04/05 00:39:56;;;;;;;17.65;6.60;;;0.50;99.90;;;;;;5048603;28;20373;-68
2023/04/05 00:42:22;;;;;;;15.60;6.35;;;0.50;99.90;;;;;;5048266;28;20599;-68
2023/04/05 00:44:48;;;;;;;14.60;6.78;;;0.50;99.90;;;;;;5048443;28;20049;-68
2023/04/05 00:47:14;;;;;;;15.68;6.57;;;0.60;99.90;;;;;;5065320;28;20547;-68
2023/04/05 00:49:40;;;;;;;16.85;6.75;;;0.50;99.90;;;;;;5064866;28;20044;-68
2023/04/05 00:52:09;;;;;;;15.68;6.47;;;0.50;99.90;;;;;;5048082;28;20083;-68
2023/04/05 00:54:37;;;;;;;14.98;6.03;;;0.50;99.90;;;;;;5048260;28;20041;-68
2023/04/05 00:57:04;;;;;;;19.75;7.70;;;0.50;99.90;;;;;;5072795;28;20058;-68
2023/04/05 00:59:30;;;;;;;17.58;6.80;;;0.50;99.90;;;;;;5075084;28;20310;-68
2023/04/05 01:02:22;;;;;;;17.50;7.00;;;0.40;99.90;;;;;;5064804;28;20051;-68
2023/04/05 01:04:59;;;;;;;17.02;7.28;;;0.40;99.90;;;;;;5048071;28;20048;-68
2023/04/05 01:07:29;;;;;;;15.95;6.43;;;0.40;99.90;;;;;;5081809;28;20036;-68
2023/04/05 01:09:57;;;;;;;13.82;6.63;;;0.40;99.90;;;;;;5084839;28;20043;-68
2023/04/05 01:12:26;;;;;;;15.70;7.15;;;0.40;99.90;;;;;;5070604;28;20048;-68
2023/04/05 01:14:54;;;;;;;21.38;8.13;;;0.30;99.90;;;;;;5076169;28;20152;-68
2023/04/05 01:17:27;;;;;;;19.02;8.00;;;0.30;99.90;;;;;;5067881;28;20036;-68
2023/04/05 01:19:59;;;;;;;17.05;7.43;;;0.30;99.90;;;;;;5050721;28;20093;-68
2023/04/05 01:22:43;;;;;;;16.02;7.30;;;0.30;99.90;;;;;;5064422;28;20048;-68
2023/04/05 01:25:29;;;;;;;17.38;7.70;;;0.30;99.90;;;;;;5047644;28;20040;-68
2023/04/05 01:27:58;;;;;;;19.25;8.10;;;0.30;99.90;;;;;;5037673;28;20455;-68
2023/04/05 01:30:32;;;;;;;17.95;7.70;;;0.40;99.90;;;;;;5064545;28;20045;-68
2023/04/05 01:33:23;;;;;;;17.70;8.52;;;0.40;99.90;;;;;;5047977;28;20768;-67
2023/04/05 01:36:33;;;;;;;20.95;8.05;;;0.40;99.90;;;;;;5063090;28;20039;-68
2023/04/05 01:39:01;;;;;;;21.17;9.55;;;0.40;99.90;;;;;;5019973;28;20040;-68
2023/04/05 01:41:27;;;;;;;22.75;7.90;;;0.40;99.90;;;;;;5063994;28;20076;-68
2023/04/05 01:43:52;;;;;;;21.10;8.70;;;0.40;99.90;;;;;;5047708;28;20503;-68
2023/04/05 01:46:18;;;;;;;16.90;7.75;;;0.40;99.90;;;;;;5064512;28;20127;-68
2023/04/05 01:48:44;;;;;;;21.40;8.95;;;0.50;99.90;;;;;;5064014;28;20037;-68
2023/04/05 01:51:10;;;;;;;18.63;8.13;;;0.50;99.90;;;;;;5070179;28;20050;-67
2023/04/05 01:53:36;;;;;;;17.95;8.13;;;0.50;99.90;;;;;;5067612;28;20036;-68
2023/04/05 01:56:02;;;;;;;22.23;8.13;;;0.40;99.90;;;;;;5056512;28;20060;-68
2023/04/05 01:58:28;;;;;;;19.30;8.48;;;0.40;99.90;;;;;;5047228;28;20534;-68
2023/04/05 02:00:54;;;;;;;19.83;8.13;;;0.30;99.90;;;;;;5064242;28;20534;-68
2023/04/05 02:03:24;;;;;;;18.13;8.77;;;0.20;99.90;;;;;;5064021;28;20933;-67
2023/04/05 02:05:50;;;;;;;19.13;8.57;;;0.20;99.90;;;;;;5063672;28;20037;-68
2023/04/05 02:08:16;;;;;;;16.65;7.93;;;0.20;99.90;;;;;;5047378;28;20041;-68
2023/04/05 02:10:42;;;;;;;25.23;8.63;;;0.20;99.90;;;;;;5064005;28;20132;-68
2023/04/05 02:13:08;;;;;;;16.80;7.72;;;0.20;99.90;;;;;;5047199;28;20135;-67
2023/04/05 02:15:34;;;;;;;19.38;8.57;;;0.10;99.90;;;;;;5047395;28;20545;-67
2023/04/05 02:18:03;;;;;;;19.90;8.80;;;0.10;99.90;;;;;;5063993;28;20127;-67
2023/04/05 02:20:29;;;;;;;21.83;8.90;;;0.00;99.90;;;;;;5047437;28;20033;-67
2023/04/05 02:22:55;;;;;;;24.80;10.00;;;0.00;99.90;;;;;;5063709;28;20041;-67
2023/04/05 02:25:21;;;;;;;23.27;9.93;;;0.00;99.90;;;;;;5063877;28;20451;-68
2023/04/05 02:27:47;;;;;;;22.27;10.02;;;0.00;99.90;;;;;;5047290;28;20035;-67
2023/04/05 02:30:14;;;;;;;22.55;10.30;;;0.10;99.90;;;;;;5063912;28;20109;-67
2023/04/05 02:32:44;;;;;;;18.83;9.60;;;0.10;99.90;;;;;;5047158;28;20045;-67
2023/04/05 02:35:10;;;;;;;24.60;10.00;;;0.10;99.90;;;;;;5047397;28;20044;-67
2023/04/05 02:37:37;;;;;;;21.50;9.73;;;0.20;99.90;;;;;;5081817;28;20047;-67
2023/04/05 02:40:08;;;;;;;25.95;10.13;;;0.20;99.90;;;;;;5067091;28;20039;-67
2023/04/05 02:42:35;;;;;;;21.23;8.93;;;0.20;99.90;;;;;;5066941;28;20423;-67
2023/04/05 02:45:00;;;;;;;20.60;8.90;;;0.20;99.90;;;;;;5064531;28;20514;-67
2023/04/05 02:47:26;;;;;;;22.17;9.88;;;0.20;99.90;;;;;;5046733;28;20040;-67
2023/04/05 02:49:52;;;;;;;21.92;9.80;;;0.10;99.90;;;;;;5047341;28;20094;-68
2023/04/05 02:52:18;;;;;;;26.42;10.70;;;0.10;99.90;;;;;;5079050;28;20051;-68
2023/04/05 02:54:45;;;;;;;23.63;10.23;;;0.00;99.90;;;;;;5083700;28;20410;-68
2023/04/05 02:57:12;;;;;;;23.70;10.82;;;0.00;99.90;;;;;;5083758;28;20043;-68
2023/04/05 02:59:38;;;;;;;27.55;11.32;;;0.00;99.90;;;;;;5069582;28;20060;-68
2023/04/05 03:02:05;;;;;;;26.52;10.45;;;0.00;99.90;;;;;;5066325;28;20052;-68
2023/04/05 03:04:33;;;;;;;21.63;10.52;;;0.00;99.90;;;;;;5050588;28;20260;-68
2023/04/05 03:07:03;;;;;;;23.65;11.55;;;0.00;99.90;;;;;;5066928;28;20044;-68
2023/04/05 03:09:32;;;;;;;27.40;11.07;;;0.00;99.90;;;;;;5067279;28;20076;-68
2023/04/05 03:12:02;;;;;;;23.50;11.02;;;0.00;99.90;;;;;;5069468;28;20040;-68
2023/04/05 03:14:33;;;;;;;24.50;12.25;;;0.00;99.90;;;;;;5066787;28;20682;-68
2023/04/05 03:17:00;;;;;;;22.25;11.57;;;0.00;99.90;;;;;;5050246;28;20512;-68
2023/04/05 03:19:26;;;;;;;23.35;11.38;;;0.00;99.90;;;;;;5050352;28;20399;-68
2023/04/05 03:21:52;;;;;;;23.42;10.95;;;0.00;99.90;;;;;;5066601;28;20546;-68
2023/04/05 03:24:18;;;;;;;23.70;11.43;;;0.00;99.90;;;;;;5050200;28;20496;-68
2023/04/05 03:26:48;;;;;;;29.77;11.57;;;0.00;99.90;;;;;;5066684;28;20083;-68
2023/04/05 03:29:14;;;;;;;25.48;11.27;;;0.00;99.90;;;;;;5049844;28;20047;-68
2023/04/05 03:31:40;;;;;;;23.65;11.50;;;0.10;99.90;;;;;;5049723;28;20040;-68
2023/04/05 03:34:06;;;;;;;22.92;11.32;;;0.00;99.90;;;;;;5066276;28;20114;-68
2023/04/05 03:36:41;;;;;;;23.58;11.45;;;0.10;99.90;;;;;;5066674;28;20306;-68
2023/04/05 03:39:13;;;;;;;23.40;11.77;;;0.00;99.90;;;;;;5066883;28;20476;-68
2023/04/05 03:41:39;;;;;;;24.63;12.70;;;0.00;99.90;;;;;;5066024;28;20099;-68
2023/04/05 03:44:06;;;;;;;25.80;11.38;;;0.00;99.90;;;;;;5066402;28;20507;-68
2023/04/05 03:46:32;;;;;;;21.27;11.60;;;0.00;99.90;;;;;;5049746;28;20442;-68
2023/04/05 03:48:59;;;;;;;26.02;11.80;;;0.00;99.90;;;;;;5049690;28;20040;-68
2023/04/05 03:51:26;;;;;;;29.92;12.43;;;0.00;99.90;;;;;;5049341;28;20135;-68
2023/04/05 03:53:52;;;;;;;23.05;11.15;;;0.00;99.90;;;;;;5049406;28;20048;-68
2023/04/05 03:56:18;;;;;;;25.42;12.13;;;-0.10;99.90;;;;;;5049815;28;20488;-68
2023/04/05 03:58:44;;;;;;;28.92;12.60;;;0.00;99.90;;;;;;5066096;28;21155;-68
2023/04/05 04:01:11;;;;;;;31.35;13.13;;;-0.10;99.90;;;;;;5066176;28;20429;-69
2023/04/05 04:03:37;;;;;;;27.65;12.88;;;-0.10;99.90;;;;;;5049357;28;20522;-68
2023/04/05 04:06:06;;;;;;;25.10;12.82;;;-0.20;99.90;;;;;;5049718;28;20495;-68
2023/04/05 04:08:32;;;;;;;24.42;12.50;;;-0.20;99.90;;;;;;5065832;28;20040;-68
2023/04/05 04:10:58;;;;;;;25.85;13.05;;;-0.30;99.90;;;;;;5049110;28;20036;-68
2023/04/05 04:13:25;;;;;;;29.40;14.02;;;-0.30;99.90;;;;;;5047944;28;20037;-68
2023/04/05 04:15:51;;;;;;;23.27;12.40;;;-0.40;99.90;;;;;;5049652;28;20121;-69
2023/04/05 04:18:16;;;;;;;27.45;13.60;;;-0.50;99.90;;;;;;5065591;28;20044;-69
2023/04/05 04:20:42;;;;;;;29.23;13.38;;;-0.60;99.90;;;;;;5050441;28;20447;-67
2023/04/05 04:23:09;;;;;;;32.30;14.27;;;-0.60;99.90;;;;;;5085831;28;20457;-67
2023/04/05 04:25:35;;;;;;;31.52;13.60;;;-0.70;99.90;;;;;;5068978;28;20076;-68
2023/04/05 04:28:03;;;;;;;31.48;14.27;;;-0.70;99.90;;;;;;5068138;28;20032;-68
2023/04/05 04:30:28;;;;;;;29.00;14.40;;;-0.80;99.90;;;;;;5051626;28;20415;-68
2023/04/05 04:32:55;;;;;;;28.73;13.90;;;-0.90;99.90;;;;;;5049389;28;20048;-68
2023/04/05 04:35:23;;;;;;;32.63;14.88;;;-1.00;99.90;;;;;;5065681;28;20040;-68
2023/04/05 04:38:00;;;;;;;31.67;14.65;;;-1.00;99.90;;;;;;5048826;28;20036;-68
2023/04/05 04:40:37;;;;;;;34.10;14.80;;;-1.00;99.90;;;;;;5065389;28;20040;-68
2023/04/05 04:43:17;;;;;;;31.70;15.48;;;-1.00;99.90;;;;;;5065327;28;20056;-68
2023/04/05 04:45:48;;;;;;;31.60;14.07;;;-0.90;99.90;;;;;;5063421;28;20041;-68
2023/04/05 04:48:15;;;;;;;30.55;14.85;;;-0.90;99.90;;;;;;5065143;28;20407;-68
2023/04/05 04:50:45;;;;;;;31.95;16.58;;;-0.90;99.90;;;;;;5065214;28;20507;-68
2023/04/05 04:53:12;;;;;;;31.88;16.17;;;-0.90;99.90;;;;;;5048277;28;20040;-68
2023/04/05 04:55:41;;;;;;;31.52;15.60;;;-0.80;99.90;;;;;;5048407;28;20044;-68
2023/04/05 04:58:11;;;;;;;34.47;14.23;;;-0.80;99.90;;;;;;5064622;28;20063;-69
2023/04/05 05:00:43;;;;;;;30.55;15.13;;;-0.80;99.90;;;;;;5064778;28;20048;-68
2023/04/05 05:03:12;;;;;;;31.02;15.00;;;-0.80;99.90;;;;;;5056411;28;20399;-69
2023/04/05 05:05:42;;;;;;;32.67;14.30;;;-0.80;99.90;;;;;;5048371;28;20059;-70
2023/04/05 05:08:08;;;;;;;27.10;14.55;;;-0.90;99.90;;;;;;5047994;28;20094;-69
2023/04/05 05:10:34;;;;;;;34.20;14.90;;;-0.90;99.90;;;;;;5065216;28;20463;-68
2023/04/05 05:13:00;;;;;;;41.20;15.38;;;-0.90;99.90;;;;;;5070693;28;20166;-69
2023/04/05 05:15:26;;;;;;;34.55;15.93;;;-1.00;99.90;;;;;;5051131;28;20041;-68
2023/04/05 05:17:54;;;;;;;32.55;15.75;;;-0.90;99.90;;;;;;5064462;28;20044;-67
2023/04/05 05:20:20;;;;;;;34.47;15.93;;;-0.90;99.90;;;;;;5065894;28;20044;-68
2023/04/05 05:22:46;;;;;;;33.60;16.27;;;-0.80;99.90;;;;;;5047669;28;20427;-68
2023/04/05 05:25:11;;;;;;;36.78;16.15;;;-0.70;99.90;;;;;;5047401;28;20039;-68
2023/04/05 05:27:38;;;;;;;27.80;14.85;;;-0.60;99.90;;;;;;5048145;28;20044;-67
2023/04/05 05:30:04;;;;;;;31.73;15.27;;;-0.50;99.90;;;;;;5047482;28;20041;-68
2023/04/05 05:32:30;;;;;;;31.90;15.48;;;-0.40;99.90;;;;;;5067239;28;20107;-68
2023/04/05 05:34:56;;;;;;;26.73;15.35;;;-0.30;99.90;;;;;;5063123;28;20178;-68
2023/04/05 05:37:29;;;;;;;33.22;16.05;;;-0.20;99.90;;;;;;5079707;28;20055;-67
2023/04/05 05:39:55;;;;;;;30.92;15.20;;;-0.10;99.90;;;;;;5067984;28;20287;-68
2023/04/05 05:42:21;;;;;;;29.08;14.80;;;0.00;99.90;;;;;;5054398;28;20048;-68
2023/04/05 05:44:47;;;;;;;26.85;14.43;;;0.20;99.90;;;;;;5048295;28;20036;-68
2023/04/05 05:47:13;;;;;;;26.13;14.55;;;0.40;99.90;;;;;;5084167;28;20043;-68
2023/04/05 05:49:39;;;;;;;30.00;13.98;;;0.50;99.90;;;;;;5083156;28;20459;-68
2023/04/05 05:52:04;;;;;;;26.20;13.88;;;0.60;99.90;;;;;;5070423;28;20044;-68
2023/04/05 05:54:30;;;;;;;27.95;14.77;;;0.80;99.90;;;;;;5047447;28;20523;-68
2023/04/05 05:56:56;;;;;;;26.85;14.80;;;0.80;99.90;;;;;;5047163;28;20332;-68
2023/04/05 05:59:22;;;;;;;25.88;14.02;;;1.00;99.90;;;;;;5067614;28;20385;-68
2023/04/05 06:01:50;;;;;;;27.73;14.38;;;1.10;99.90;;;;;;5067264;28;20036;-68
2023/04/05 06:04:16;;;;;;;28.27;15.27;;;1.20;99.90;;;;;;5073788;28;20080;-69
2023/04/05 06:06:42;;;;;;;28.80;14.95;;;1.30;99.90;;;;;;5070268;28;20040;-68
2023/04/05 06:09:09;;;;;;;24.50;14.55;;;2.10;99.90;;;;;;5067361;28;20048;-68
2023/04/05 06:11:35;;;;;;;26.02;13.60;;;2.30;99.90;;;;;;5081683;28;20398;-68
2023/04/05 06:14:04;;;;;;;24.35;14.05;;;2.70;99.90;;;;;;5062453;28;20036;-68
2023/04/05 06:16:30;;;;;;;22.52;13.93;;;3.10;99.90;;;;;;5062385;28;20047;-68
2023/04/05 06:18:56;;;;;;;25.05;13.30;;;3.60;99.90;;;;;;5067699;28;20036;-67
2023/04/05 06:21:23;;;;;;;24.60;13.13;;;4.10;99.90;;;;;;5047224;28;20044;-63
2023/04/05 06:23:51;;;;;;;24.35;13.98;;;4.50;99.90;;;;;;5047088;28;20052;-64
2023/04/05 06:26:25;;;;;;;23.42;12.55;;;4.90;99.90;;;;;;5063443;28;20037;-64
2023/04/05 06:28:53;;;;;;;27.08;12.60;;;5.30;99.90;;;;;;5065187;28;20036;-63
2023/04/05 06:31:26;;;;;;;24.85;12.98;;;5.50;99.90;;;;;;5047231;28;20407;-64
2023/04/05 06:33:52;;;;;;;20.92;11.90;;;5.60;99.90;;;;;;5065157;28;20047;-64
2023/04/05 06:36:18;;;;;;;21.85;12.60;;;5.40;99.90;;;;;;5082245;28;20044;-63
2023/04/05 06:38:43;;;;;;;25.15;13.38;;;5.30;99.90;;;;;;5068923;28;20044;-63
2023/04/05 06:41:09;;;;;;;22.65;11.90;;;5.50;99.90;;;;;;5067728;28;20078;-63
2023/04/05 06:43:35;;;;;;;23.45;12.18;;;5.20;99.90;;;;;;5067305;28;20102;-64
2023/04/05 06:46:07;;;;;;;23.60;13.18;;;4.70;99.90;;;;;;5067624;28;20568;-63
2023/04/05 06:48:33;;;;;;;23.42;13.30;;;4.50;99.90;;;;;;5067491;28;20119;-63
2023/04/05 06:51:00;;;;;;;21.00;12.93;;;4.50;99.90;;;;;;5072116;28;20578;-64
2023/04/05 06:53:27;;;;;;;26.35;11.85;;;4.70;99.90;;;;;;5087578;28;20693;-64
2023/04/05 06:55:58;;;;;;;22.42;12.07;;;4.90;99.90;;;;;;5078596;28;20484;-64
2023/04/05 06:58:28;;;;;;;18.58;12.05;;;5.00;99.90;;;;;;5050814;28;20487;-64
2023/04/05 07:00:55;;;;;;;20.40;11.88;;;5.00;99.90;;;;;;5067628;28;20369;-64
2023/04/05 07:03:21;;;;;;;19.55;12.05;;;5.10;99.90;;;;;;5066823;28;20033;-63
2023/04/05 07:05:55;;;;;;;24.83;12.45;;;5.20;99.90;;;;;;5083776;28;20036;-64
2023/04/05 07:08:23;;;;;;;20.27;11.93;;;5.30;99.90;;;;;;5067005;28;20102;-63
2023/04/05 07:10:52;;;;;;;18.85;11.65;;;5.40;99.90;;;;;;5068520;28;20060;-64
2023/04/05 07:13:20;;;;;;;25.27;11.40;;;5.20;99.90;;;;;;5067209;28;20500;-64
2023/04/05 07:15:46;;;;;;;20.17;11.40;;;5.20;99.90;;;;;;5068216;28;20040;-63
2023/04/05 07:18:14;;;;;;;19.65;11.15;;;5.20;99.90;;;;;;5066506;28;20481;-64
2023/04/05 07:20:40;;;;;;;18.33;9.77;;;5.30;99.90;;;;;;5086573;28;20054;-64
2023/04/05 07:23:06;;;;;;;24.08;11.38;;;5.60;99.90;;;;;;5050018;28;20039;-64
2023/04/05 07:25:32;;;;;;;21.10;11.13;;;6.10;99.90;;;;;;5068347;28;20040;-64
2023/04/05 07:27:58;;;;;;;20.00;10.70;;;6.40;99.90;;;;;;5066624;28;20036;-64
2023/04/05 07:30:26;;;;;;;18.10;10.27;;;6.60;99.90;;;;;;5083303;28;20041;-64
2023/04/05 07:32:52;;;;;;;20.45;10.35;;;6.80;99.90;;;;;;5066890;28;20115;-64
2023/04/05 07:35:17;;;;;;;20.10;10.32;;;7.00;99.90;;;;;;5066361;28;20132;-64
2023/04/05 07:37:43;;;;;;;19.08;9.57;;;7.40;99.90;;;;;;5066265;28;20078;-64
2023/04/05 07:40:10;;;;;;;15.43;10.23;;;7.80;99.90;;;;;;5066427;28;20047;-64
2023/04/05 07:42:36;;;;;;;13.95;9.18;;;8.20;99.90;;;;;;5066243;28;20037;-64
2023/04/05 07:45:02;;;;;;;15.25;8.90;;;8.50;99.90;;;;;;5067551;28;20037;-63
2023/04/05 07:47:27;;;;;;;15.07;8.85;;;8.90;99.30;;;;;;5067553;28;20079;-64
2023/04/05 07:49:53;;;;;;;17.40;8.35;;;9.20;98.50;;;;;;5080476;28;20250;-63
2023/04/05 07:52:19;;;;;;;15.25;8.32;;;9.50;97.40;;;;;;5072345;28;20044;-63
2023/04/05 07:54:45;;;;;;;19.73;8.70;;;9.80;96.40;;;;;;5066334;28;20041;-63
2023/04/05 07:57:18;;;;;;;16.13;9.27;;;10.10;95.50;;;;;;5049737;28;20587;-64
2023/04/05 07:59:44;;;;;;;15.05;8.32;;;10.40;91.20;;;;;;5066022;28;20389;-63
2023/04/05 08:02:09;;;;;;;16.98;8.32;;;10.50;92.10;;;;;;5049430;28;20052;-65
2023/04/05 08:04:35;;;;;;;13.80;8.80;;;10.80;91.20;;;;;;5067415;28;20472;-64
2023/04/05 08:07:01;;;;;;;13.90;7.97;;;11.10;90.60;;;;;;5049290;28;20574;-64
2023/04/05 08:09:26;;;;;;;17.58;8.02;;;11.30;87.70;;;;;;5067283;28;20072;-65
2023/04/05 08:11:52;;;;;;;13.77;8.23;;;11.20;85.00;;;;;;5086167;28;20036;-64
2023/04/05 08:14:18;;;;;;;16.35;7.85;;;11.00;85.10;;;;;;5086004;28;20495;-64
2023/04/05 08:16:44;;;;;;;17.13;8.10;;;11.00;86.10;;;;;;5087689;28;20360;-65
2023/04/05 08:19:09;;;;;;;11.75;7.68;;;10.70;84.90;;;;;;5077202;28;20396;-64
2023/04/05 08:21:35;;;;;;;15.00;7.78;;;10.80;85.60;;;;;;5073577;28;20499;-64
2023/04/05 08:24:01;;;;;;;14.93;7.88;;;10.90;83.60;;;;;;5068925;28;20123;-64
2023/04/05 08:26:27;;;;;;;12.88;7.13;;;11.10;82.20;;;;;;5078271;28;20047;-65
2023/04/05 08:28:53;;;;;;;14.82;7.57;;;10.90;78.30;;;;;;5067228;28;20570;-64
2023/04/05 08:31:19;;;;;;;15.43;7.75;;;10.60;78.40;;;;;;5065687;28;20072;-64
2023/04/05 08:33:45;;;;;;;13.07;7.30;;;10.50;79.70;;;;;;5066715;28;20119;-64
2023/04/05 08:36:11;;;;;;;13.57;7.82;;;10.60;79.60;;;;;;5065347;28;20127;-64
2023/04/05 08:38:37;;;;;;;13.13;7.55;;;10.70;78.40;;;;;;5065390;28;20048;-64
2023/04/05 08:41:09;;;;;;;14.52;7.38;;;10.90;80.00;;;;;;5066516;28;20040;-65
2023/04/05 08:43:57;;;;;;;13.60;7.72;;;11.10;78.90;;;;;;5051739;28;20044;-64
2023/04/05 08:46:23;;;;;;;11.77;6.43;;;11.50;77.80;;;;;;5048766;28;20244;-64
2023/04/05 08:48:50;;;;;;;12.18;6.03;;;12.00;76.80;;;;;;5065310;28;20116;-64
2023/04/05 08:51:23;;;;;;;10.40;6.43;;;11.90;74.40;;;;;;5048237;28;20044;-64
2023/04/05 08:53:49;;;;;;;11.23;6.22;;;11.70;70.40;;;;;;5066394;28;20109;-64
2023/04/05 08:56:20;;;;;;;11.65;5.95;;;11.40;71.00;;;;;;5066478;28;20116;-64
2023/04/05 08:59:08;;;;;;;11.50;5.47;;;11.50;69.60;;;;;;5066503;28;20057;-64
2023/04/05 09:01:42;;;;;;;10.40;6.40;;;11.40;66.10;;;;;;5084989;28;20044;-63
2023/04/05 09:04:23;;;;;;;11.20;5.95;;;11.00;67.30;;;;;;5076941;28;20029;-64
2023/04/05 09:06:50;;;;;;;11.85;5.95;;;11.00;68.70;;;;;;5048042;28;20044;-64
2023/04/05 09:09:16;;;;;;;12.85;5.75;;;10.90;70.50;;;;;;5065002;28;20048;-64
2023/04/05 09:11:42;;;;;;;17.33;5.53;;;11.10;72.40;;;;;;5048124;28;20048;-63
2023/04/05 09:14:10;;;;;;;11.52;5.18;;;11.50;69.10;;;;;;5069653;28;20040;-63
2023/04/05 09:16:38;;;;;;;11.90;5.35;;;11.80;66.80;;;;;;5084830;28;20044;-64
2023/04/05 09:19:05;;;;;;;10.63;5.15;;;11.80;64.80;;;;;;5075445;28;20032;-65
2023/04/05 09:21:56;;;;;;;9.63;5.50;;;11.50;63.50;;;;;;5076315;28;20041;-64
2023/04/05 09:24:42;;;;;;;14.00;5.65;;;11.20;63.00;;;;;;5048086;28;20423;-64
2023/04/05 09:27:17;;;;;;;11.30;5.57;;;11.70;61.90;;;;;;5047889;28;20242;-64
2023/04/05 09:29:46;;;;;;;12.38;5.30;;;11.80;62.50;;;;;;5053991;28;20467;-64
2023/04/05 09:32:14;;;;;;;12.15;5.40;;;11.60;63.40;;;;;;5064474;28;20040;-65
2023/04/05 09:34:41;;;;;;;10.25;5.40;;;11.40;63.20;;;;;;5064064;28;20271;-63
2023/04/05 09:37:15;;;;;;;9.35;4.72;;;11.20;63.00;;;;;;5064308;28;20044;-63
2023/04/05 09:39:42;;;;;;;10.32;5.40;;;11.00;63.00;;;;;;5064613;28;20044;-63
2023/04/05 09:42:15;;;;;;;11.93;5.03;;;10.90;63.40;;;;;;5064215;28;20044;-64
2023/04/05 09:45:01;;;;;;;8.40;4.37;;;10.90;61.80;;;;;;5074130;28;20266;-63
2023/04/05 09:47:33;;;;;;;10.82;5.72;;;11.10;62.50;;;;;;5084458;28;20358;-64
2023/04/05 09:50:05;;;;;;;9.05;3.63;;;11.30;62.50;;;;;;5069371;28;20043;-64
2023/04/05 09:52:31;;;;;;;9.00;4.78;;;11.70;61.50;;;;;;5064293;28;20048;-63
2023/04/05 09:55:01;;;;;;;7.80;4.55;;;12.20;61.00;;;;;;5047377;28;20041;-63
2023/04/05 09:57:32;;;;;;;8.13;4.38;;;12.80;60.80;;;;;;5047366;28;20117;-63
2023/04/05 09:59:57;;;;;;;9.85;4.47;;;13.30;59.20;;;;;;5075886;28;20064;-64
2023/04/05 10:02:24;;;;;;;8.77;4.15;;;13.70;58.20;;;;;;5084011;28;20082;-64
2023/04/05 10:04:50;;;;;;;11.93;4.93;;;13.90;57.60;;;;;;5070154;28;20506;-63
2023/04/05 10:07:18;;;;;;;10.13;4.55;;;13.50;54.70;;;;;;5080899;28;20123;-64
2023/04/05 10:09:46;;;;;;;9.55;4.20;;;13.00;54.40;;;;;;5048563;28;20132;-64
2023/04/05 10:12:26;;;;;;;9.98;5.15;;;12.70;56.90;;;;;;5051356;28;20051;-64
2023/04/05 10:14:52;;;;;;;10.38;5.32;;;12.20;56.10;;;;;;5067901;28;20052;-63
2023/04/05 10:17:28;;;;;;;11.57;5.13;;;11.50;56.60;;;;;;5067968;28;20040;-64
2023/04/05 10:19:56;;;;;;;11.63;5.10;;;10.90;55.00;;;;;;5069443;28;20051;-64
2023/04/05 10:22:28;;;;;;;10.73;5.22;;;10.80;54.70;;;;;;5067921;28;20557;-63
2023/04/05 10:25:11;;;;;;;11.75;4.63;;;10.70;56.60;;;;;;5067855;28;20040;-63
2023/04/05 10:27:48;;;;;;;13.90;5.50;;;10.50;59.10;;;;;;5069449;28;20137;-65
2023/04/05 10:30:15;;;;;;;10.30;5.00;;;10.20;58.30;;;;;;5069193;28;20052;-64
2023/04/05 10:33:05;;;;;;;13.15;4.82;;;10.20;57.10;;;;;;5069084;28;20131;-64
2023/04/05 10:35:49;;;;;;;8.32;4.50;;;10.60;56.80;;;;;;5086010;28;20043;-63
2023/04/05 10:38:27;;;;;;;10.83;5.73;;;11.00;56.10;;;;;;5069663;28;20464;-64
2023/04/05 10:40:58;;;;;;;11.70;5.45;;;10.90;55.20;;;;;;5067463;28;20275;-64
2023/04/05 10:43:26;;;;;;;10.52;5.47;;;10.90;57.20;;;;;;5067782;28;20072;-64
2023/04/05 10:45:53;;;;;;;11.90;5.10;;;11.00;56.90;;;;;;5085866;28;20567;-64
2023/04/05 10:48:44;;;;;;;9.40;4.57;;;10.60;55.80;;;;;;5083477;28;20266;-64
2023/04/05 10:51:12;;;;;;;8.98;4.68;;;10.80;58.20;;;;;;5068280;28;20376;-64
2023/04/05 10:53:39;;;;;;;8.93;4.70;;;11.00;56.50;;;;;;5067537;28;20032;-64
2023/04/05 10:56:06;;;;;;;9.25;4.32;;;11.10;55.50;;;;;;5068672;28;20105;-64
2023/04/05 10:58:33;;;;;;;11.15;5.28;;;11.40;55.10;;;;;;5050422;28;20056;-65
2023/04/05 11:00:59;;;;;;;10.77;5.13;;;11.80;55.00;;;;;;5068311;28;20049;-63
2023/04/05 11:03:47;;;;;;;8.70;4.80;;;12.20;55.40;;;;;;5051002;28;20127;-63
2023/04/05 11:06:29;;;;;;;12.13;4.95;;;12.80;52.80;;;;;;5071162;28;20028;-64
2023/04/05 11:08:59;;;;;;;10.30;4.82;;;13.40;49.00;;;;;;5087529;28;20036;-64
2023/04/05 11:11:26;;;;;;;8.82;4.57;;;13.60;49.70;;;;;;5087277;28;20040;-64
2023/04/05 11:13:56;;;;;;;8.77;4.70;;;13.60;51.00;;;;;;5084036;28;20036;-64
2023/04/05 11:16:37;;;;;;;9.25;4.72;;;13.70;50.00;;;;;;5070720;28;20702;-64
2023/04/05 11:19:02;;;;;;;8.30;4.22;;;13.60;50.90;;;;;;5080195;28;20407;-64
2023/04/05 11:21:30;;;;;;;9.40;4.50;;;13.50;50.50;;;;;;5073543;28;20050;-64
2023/04/05 11:24:06;;;;;;;9.70;4.38;;;13.60;50.60;;;;;;5087327;28;20040;-64
2023/04/05 11:26:32;;;;;;;8.15;4.45;;;13.90;50.50;;;;;;5087338;28;20036;-64
2023/04/05 11:28:58;;;;;;;10.07;4.45;;;14.30;49.60;;;;;;5084092;28;20093;-64
2023/04/05 11:31:25;;;;;;;10.00;4.93;;;14.10;48.40;;;;;;5066927;28;20131;-64
2023/04/05 11:33:58;;;;;;;9.80;4.60;;;13.60;48.40;;;;;;5053981;28;20050;-64
2023/04/05 11:36:46;;;;;;;7.97;4.70;;;12.70;47.40;;;;;;5080014;28;20055;-64
2023/04/05 11:39:19;;;;;;;11.70;4.88;;;12.50;48.90;;;;;;5033515;28;20135;-64
2023/04/05 11:42:02;;;;;;;10.40;4.85;;;12.70;49.90;;;;;;5066680;28;20040;-64
2023/04/05 11:44:51;;;;;;;8.40;4.45;;;13.20;49.00;;;;;;5069070;28;20040;-64
2023/04/05 11:47:20;;;;;;;9.55;4.65;;;13.50;48.70;;;;;;5067114;28;20284;-64
2023/04/05 11:49:49;;;;;;;9.02;5.00;;;13.60;47.80;;;;;;5057184;28;20040;-64
2023/04/05 11:52:17;;;;;;;11.10;5.13;;;13.40;46.20;;;;;;5049607;28;20408;-65
2023/04/05 11:54:47;;;;;;;8.88;4.72;;;13.40;48.00;;;;;;5049518;28;20044;-64
2023/04/05 11:57:21;;;;;;;9.63;4.70;;;13.50;46.90;;;;;;5065928;28;20041;-64
2023/04/05 11:59:52;;;;;;;10.15;4.45;;;14.00;45.50;;;;;;5067382;28;20063;-65
2023/04/05 12:02:18;;;;;;;10.15;4.75;;;14.20;45.40;;;;;;5067411;28;20036;-65
2023/04/05 12:04:43;;;;;;;8.35;4.10;;;14.20;44.70;;;;;;5049365;28;20032;-65
2023/04/05 12:07:18;;;;;;;8.88;4.65;;;14.20;44.00;;;;;;5065970;28;20224;-65
2023/04/05 12:10:01;;;;;;;;;;;14.50;44.50;;;;;;5066415;28;20044;-65
2023/04/05 12:12:27;;;;;;;9.75;4.53;;;14.60;45.60;;;;;;5066081;28;20462;-65
2023/04/05 12:15:01;;;;;;;7.72;4.53;;;14.60;45.90;;;;;;5067456;28;20041;-65
2023/04/05 12:17:49;;;;;;;17.40;5.47;;;14.30;45.20;;;;;;5065994;28;20045;-64
2023/04/05 12:20:22;;;;;;;8.20;4.20;;;13.80;45.00;;;;;;5082415;28;20506;-64
2023/04/05 12:22:51;;;;;;;10.85;4.60;;;13.00;45.80;;;;;;5083870;28;20040;-64
2023/04/05 12:25:17;;;;;;;11.70;5.70;;;12.40;45.50;;;;;;5068755;28;20040;-64
2023/04/05 12:27:44;;;;;;;9.65;4.75;;;12.10;46.00;;;;;;5085839;28;20036;-65
2023/04/05 12:30:17;;;;;;;8.70;4.75;;;11.70;45.30;;;;;;5056109;28;20040;-64
2023/04/05 12:32:54;;;;;;;8.93;4.57;;;11.60;45.60;;;;;;5064829;28;20048;-64
2023/04/05 12:35:23;;;;;;;9.23;4.57;;;11.90;46.60;;;;;;5065153;28;20051;-64
2023/04/05 12:37:51;;;;;;;9.52;4.53;;;12.50;47.10;;;;;;5066655;28;20537;-64
2023/04/05 12:40:21;;;;;;;10.52;4.82;;;12.50;45.50;;;;;;5082202;28;20048;-64
2023/04/05 12:42:47;;;;;;;8.32;4.25;;;12.70;46.50;;;;;;5066362;28;20056;-63
2023/04/05 12:45:13;;;;;;;8.70;4.03;;;13.10;46.90;;;;;;5065273;28;20085;-65
2023/04/05 12:47:55;;;;;;;8.48;3.97;;;13.30;45.90;;;;;;5065050;28;20095;-64
2023/04/05 12:50:26;;;;;;;9.85;4.32;;;13.80;45.20;;;;;;5065133;28;20479;-65